Time;durP1;ratioP1;P1;durP2;ratioP2;P2;SDS_P1;SDS_P2;PMS_P1;PMS_P2;Temp;Humidity;BMP_temperature;BMP_pressure;BME280_temperature;BME280_humidity;BME280_pressure;Samples;Min_cycle;Max_cycle;Signal;HPM_P1;HPM_P2
2024/04/18 00:01:17;;;;;;;35.70;18.67;;;5.70;99.90;;;;;;792811;181;26536;-77
2024/04/18 00:03:44;;;;;;;34.23;19.73;;;5.70;99.90;;;;;;794955;178;27035;-77
2024/04/18 00:06:10;;;;;;;35.97;19.90;;;5.70;99.90;;;;;;794317;180;26462;-77
2024/04/18 00:08:37;;;;;;;36.17;20.90;;;5.70;99.90;;;;;;792035;180;26997;-77
2024/04/18 00:11:04;;;;;;;40.83;22.73;;;5.70;99.90;;;;;;793097;180;26455;-77
2024/04/18 00:13:30;;;;;;;38.30;21.53;;;5.70;99.90;;;;;;793295;180;26464;-77
2024/04/18 00:15:57;;;;;;;40.97;22.93;;;5.60;99.90;;;;;;794055;180;26471;-77
2024/04/18 00:18:23;;;;;;;42.57;22.80;;;5.70;99.90;;;;;;794258;181;26501;-77
2024/04/18 00:20:50;;;;;;;37.63;21.00;;;5.70;99.90;;;;;;793668;180;26798;-77
2024/04/18 00:23:17;;;;;;;37.90;21.20;;;5.60;99.90;;;;;;792029;180;27053;-76
2024/04/18 00:25:44;;;;;;;41.43;22.63;;;5.60;99.90;;;;;;792342;180;26506;-76
2024/04/18 00:28:10;;;;;;;36.33;20.87;;;5.60;99.90;;;;;;791488;180;26502;-77
2024/04/18 00:30:37;;;;;;;36.17;19.60;;;5.60;99.90;;;;;;793342;180;26639;-77
2024/04/18 00:33:04;;;;;;;31.33;18.70;;;5.60;99.90;;;;;;789881;180;26645;-77
2024/04/18 00:35:30;;;;;;;31.50;18.87;;;5.50;99.90;;;;;;793396;180;26484;-75
2024/04/18 00:37:57;;;;;;;33.17;20.00;;;5.60;99.90;;;;;;789528;181;26645;-78
2024/04/18 00:40:23;;;;;;;32.80;18.50;;;5.50;99.90;;;;;;790654;181;26476;-76
2024/04/18 00:42:50;;;;;;;34.47;19.70;;;5.50;99.90;;;;;;793516;180;26593;-78
2024/04/18 00:45:19;;;;;;;31.60;18.77;;;5.50;99.90;;;;;;791299;181;26457;-77
2024/04/18 00:47:46;;;;;;;35.57;19.63;;;5.50;99.90;;;;;;790934;181;27022;-78
2024/04/18 00:50:12;;;;;;;33.67;18.87;;;5.50;99.90;;;;;;789383;181;26477;-78
2024/04/18 00:52:39;;;;;;;32.13;19.97;;;5.50;99.90;;;;;;789811;181;27120;-78
2024/04/18 00:55:07;;;;;;;41.47;23.20;;;5.40;99.90;;;;;;793340;181;26441;-77
2024/04/18 00:57:33;;;;;;;36.83;21.43;;;5.50;99.90;;;;;;797694;180;26593;-78
2024/04/18 01:00:00;;;;;;;40.43;22.50;;;5.50;99.90;;;;;;792509;181;26598;-76
2024/04/18 01:02:26;;;;;;;38.73;21.83;;;5.50;99.90;;;;;;795483;177;26443;-78
2024/04/18 01:04:53;;;;;;;37.37;21.20;;;5.50;99.90;;;;;;791801;180;26451;-76
2024/04/18 01:07:20;;;;;;;36.80;20.50;;;5.50;99.90;;;;;;791312;180;26514;-76
2024/04/18 01:09:46;;;;;;;39.87;22.57;;;5.50;99.90;;;;;;791221;180;26524;-76
2024/04/18 01:12:13;;;;;;;41.60;22.73;;;5.60;99.90;;;;;;790816;181;27022;-77
2024/04/18 01:14:39;;;;;;;44.40;24.00;;;5.60;99.90;;;;;;792572;178;26445;-75
2024/04/18 01:17:06;;;;;;;40.63;22.80;;;5.60;99.90;;;;;;793607;179;27047;-75
2024/04/18 01:19:33;;;;;;;43.73;21.63;;;5.60;99.90;;;;;;795927;180;26467;-77
2024/04/18 01:21:59;;;;;;;44.03;22.43;;;5.60;99.90;;;;;;795426;179;26488;-78
2024/04/18 01:24:26;;;;;;;45.00;24.20;;;5.60;99.90;;;;;;793006;180;26612;-78
2024/04/18 01:26:56;;;;;;;47.47;25.67;;;5.60;99.90;;;;;;791762;170;26496;31
2024/04/18 01:29:23;;;;;;;52.40;24.17;;;5.60;99.90;;;;;;804657;176;26439;-78
2024/04/18 01:31:49;;;;;;;50.63;25.43;;;5.60;99.90;;;;;;800934;179;26469;-78
2024/04/18 01:34:18;;;;;;;49.97;25.77;;;5.60;99.90;;;;;;812026;176;26447;-78
2024/04/18 01:36:42;;;;;;;49.23;25.17;;;5.60;99.90;;;;;;823175;174;26556;-77
2024/04/18 01:39:09;;;;;;;49.80;26.97;;;5.60;99.90;;;;;;801619;174;26428;-79
2024/04/18 01:41:36;;;;;;;45.10;22.97;;;5.70;99.90;;;;;;798122;179;26432;-78
2024/04/18 01:44:03;;;;;;;56.43;26.63;;;5.70;99.90;;;;;;779982;183;26445;-78
2024/04/18 01:46:29;;;;;;;43.80;23.43;;;5.70;99.90;;;;;;800613;179;26449;-78
2024/04/18 01:48:56;;;;;;;40.03;22.30;;;5.70;99.90;;;;;;802055;178;26996;-77
2024/04/18 01:51:22;;;;;;;41.40;22.47;;;5.70;99.90;;;;;;786199;183;26455;-79
2024/04/18 01:53:49;;;;;;;39.17;22.70;;;5.70;99.90;;;;;;799624;179;26968;-78
2024/04/18 01:56:16;;;;;;;38.40;20.20;;;5.70;99.90;;;;;;801078;179;26451;-78
2024/04/18 01:58:42;;;;;;;36.03;20.40;;;5.70;99.90;;;;;;797354;179;26486;-80
2024/04/18 02:01:09;;;;;;;38.23;21.97;;;5.70;99.90;;;;;;797337;179;26447;-80
2024/04/18 02:03:35;;;;;;;38.13;20.77;;;5.60;99.90;;;;;;793513;180;26445;-78
2024/04/18 02:06:02;;;;;;;38.77;20.87;;;5.60;99.90;;;;;;791266;180;26472;-77
2024/04/18 02:08:29;;;;;;;41.47;21.87;;;5.60;99.90;;;;;;790292;179;26544;-79
2024/04/18 02:10:55;;;;;;;46.73;24.23;;;5.50;99.90;;;;;;799300;179;26438;-78
2024/04/18 02:13:22;;;;;;;47.87;23.90;;;5.50;99.90;;;;;;782901;183;26441;-79
2024/04/18 02:15:48;;;;;;;51.63;25.87;;;5.40;99.90;;;;;;795789;178;26414;-79
2024/04/18 02:18:15;;;;;;;54.27;26.80;;;5.30;99.90;;;;;;781155;183;26983;-78
2024/04/18 02:20:41;;;;;;;54.47;26.23;;;5.30;99.90;;;;;;794917;179;26433;-79
2024/04/18 02:23:08;;;;;;;51.93;25.50;;;5.20;99.90;;;;;;781760;183;26461;-76
2024/04/18 02:25:36;;;;;;;56.37;26.83;;;5.10;99.90;;;;;;799074;178;26406;-77
2024/04/18 02:28:01;;;;;;;62.37;28.10;;;5.00;99.90;;;;;;800495;179;26968;-79
2024/04/18 02:30:28;;;;;;;62.43;28.63;;;5.00;99.90;;;;;;804465;178;26466;-76
2024/04/18 02:32:54;;;;;;;60.93;28.33;;;4.90;99.90;;;;;;805103;179;26475;-80
2024/04/18 02:35:21;;;;;;;74.63;29.83;;;4.90;99.90;;;;;;784513;182;26391;-78
2024/04/18 02:37:48;;;;;;;67.93;29.27;;;4.80;99.90;;;;;;781350;183;27024;-78
2024/04/18 02:40:14;;;;;;;67.73;28.23;;;4.90;99.90;;;;;;803114;179;26425;-79
2024/04/18 02:42:41;;;;;;;72.60;29.93;;;4.90;99.90;;;;;;783972;183;26440;-79
2024/04/18 02:45:07;;;;;;;77.50;32.07;;;4.90;99.90;;;;;;803382;179;26557;-80
2024/04/18 02:47:34;;;;;;;74.53;31.00;;;5.00;99.90;;;;;;798033;177;26461;-78
2024/04/18 02:50:01;;;;;;;77.13;32.10;;;5.00;99.90;;;;;;804777;179;26432;-79
2024/04/18 02:52:28;;;;;;;80.53;34.60;;;5.00;99.90;;;;;;803089;179;26438;-78
2024/04/18 02:54:55;;;;;;;77.53;32.27;;;5.10;99.90;;;;;;787046;179;26452;-79
2024/04/18 02:57:23;;;;;;;78.13;33.90;;;5.10;99.90;;;;;;802030;179;26428;-80
2024/04/18 02:59:48;;;;;;;83.73;33.60;;;5.10;99.90;;;;;;799459;179;26418;-78
2024/04/18 03:02:15;;;;;;;92.30;35.57;;;5.20;99.90;;;;;;782597;181;26630;-79
2024/04/18 03:04:42;;;;;;;79.17;33.60;;;5.30;99.90;;;;;;795303;179;26443;-78
2024/04/18 03:07:08;;;;;;;78.43;34.20;;;5.20;99.90;;;;;;799816;177;26456;-79
2024/04/18 03:09:35;;;;;;;79.33;32.83;;;5.20;99.90;;;;;;786298;183;26484;-78
2024/04/18 03:12:01;;;;;;;86.13;35.27;;;5.10;99.90;;;;;;795678;179;26434;-78
2024/04/18 03:14:28;;;;;;;79.23;33.50;;;5.10;99.90;;;;;;800853;180;26502;-78
2024/04/18 03:16:54;;;;;;;79.70;34.47;;;5.10;99.90;;;;;;790286;180;26478;-78
2024/04/18 03:19:21;;;;;;;89.57;35.90;;;5.10;99.90;;;;;;795811;179;26421;-78
2024/04/18 03:21:48;;;;;;;97.70;37.90;;;5.00;99.90;;;;;;786348;183;26487;-79
2024/04/18 03:24:18;;;;;;;98.97;38.23;;;5.10;99.90;;;;;;799022;179;26419;-75
2024/04/18 03:26:45;;;;;;;91.50;36.70;;;5.20;99.90;;;;;;798786;179;26413;-78
2024/04/18 03:29:11;;;;;;;93.10;36.73;;;5.30;99.90;;;;;;795093;179;26471;-78
2024/04/18 03:31:38;;;;;;;88.50;34.63;;;5.30;99.90;;;;;;796888;180;26452;-78
2024/04/18 03:34:04;;;;;;;80.00;33.80;;;5.30;99.90;;;;;;798106;179;26445;-78
2024/04/18 03:36:34;;;;;;;78.93;34.50;;;5.30;99.90;;;;;;796759;180;26453;-77
2024/04/18 03:39:00;;;;;;;87.67;36.17;;;5.40;99.90;;;;;;796456;177;26462;-78
2024/04/18 03:41:25;;;;;;;81.37;36.40;;;5.40;99.90;;;;;;791605;178;26509;-79
2024/04/18 03:43:51;;;;;;;78.97;35.20;;;5.40;99.90;;;;;;796157;179;26453;-78
2024/04/18 03:46:19;;;;;;;81.27;35.10;;;5.40;99.90;;;;;;782964;182;26443;-77
2024/04/18 03:48:44;;;;;;;74.70;34.60;;;5.50;99.90;;;;;;800492;176;26445;-79
2024/04/18 03:51:11;;;;;;;81.33;34.17;;;5.40;99.90;;;;;;801482;179;26430;-78
2024/04/18 03:53:37;;;;;;;79.17;36.53;;;5.50;99.90;;;;;;785091;183;26448;-77
2024/04/18 03:56:04;;;;;;;85.00;36.40;;;5.50;99.90;;;;;;799851;179;26418;-77
2024/04/18 03:58:30;;;;;;;87.33;36.50;;;5.50;99.90;;;;;;799238;179;26426;-75
2024/04/18 04:00:57;;;;;;;88.30;37.80;;;5.50;99.90;;;;;;785260;183;26451;-77
2024/04/18 04:03:24;;;;;;;82.63;37.03;;;5.50;99.90;;;;;;795848;179;26740;-78
2024/04/18 04:05:50;;;;;;;81.03;36.93;;;5.50;99.90;;;;;;798371;179;26443;-78
2024/04/18 04:08:17;;;;;;;83.83;37.03;;;5.50;99.90;;;;;;777986;182;26517;-78
2024/04/18 04:10:43;;;;;;;82.07;36.57;;;5.50;99.90;;;;;;782373;182;26628;-76
2024/04/18 04:13:10;;;;;;;70.37;33.97;;;5.50;99.90;;;;;;799602;179;26459;-77
2024/04/18 04:15:37;;;;;;;78.30;36.13;;;5.50;99.90;;;;;;800000;180;26484;-77
2024/04/18 04:18:03;;;;;;;69.13;33.50;;;5.50;99.90;;;;;;784738;183;26486;-78
2024/04/18 04:20:30;;;;;;;83.90;37.27;;;5.60;99.90;;;;;;799184;179;26426;-78
2024/04/18 04:22:57;;;;;;;81.40;36.00;;;5.60;99.90;;;;;;779638;181;26488;-79
2024/04/18 04:25:23;;;;;;;83.37;37.50;;;5.60;99.90;;;;;;803090;179;26435;-80
2024/04/18 04:27:50;;;;;;;72.93;34.57;;;5.60;99.90;;;;;;802080;177;26444;-78
2024/04/18 04:30:17;;;;;;;82.27;35.50;;;5.60;99.90;;;;;;784534;183;27082;-75
2024/04/18 04:32:43;;;;;;;78.97;36.83;;;5.60;99.90;;;;;;800955;179;26426;-77
2024/04/18 04:35:11;;;;;;;77.87;35.67;;;5.70;99.90;;;;;;802460;180;26423;-78
2024/04/18 04:37:36;;;;;;;84.70;37.20;;;5.60;99.90;;;;;;777669;179;26476;-79
2024/04/18 04:40:03;;;;;;;75.93;35.73;;;5.60;99.90;;;;;;774892;184;26476;-78
2024/04/18 04:42:30;;;;;;;74.63;35.93;;;5.70;99.90;;;;;;782474;182;26530;-79
2024/04/18 04:44:56;;;;;;;70.30;33.90;;;5.70;99.90;;;;;;802035;179;26404;-79
2024/04/18 04:47:23;;;;;;;69.47;34.33;;;5.70;99.90;;;;;;801301;177;26428;-80
2024/04/18 04:49:50;;;;;;;78.30;35.77;;;5.70;99.90;;;;;;791418;179;26476;-76
2024/04/18 04:52:16;;;;;;;70.13;32.70;;;5.70;99.90;;;;;;796172;180;26414;-78
2024/04/18 04:54:43;;;;;;;62.47;30.43;;;5.70;99.90;;;;;;796246;179;26452;-76
2024/04/18 04:57:10;;;;;;;50.50;27.77;;;5.70;99.90;;;;;;785985;182;26745;-79
2024/04/18 04:59:36;;;;;;;51.13;26.10;;;5.70;99.90;;;;;;800358;179;26425;-80
2024/04/18 05:02:03;;;;;;;48.47;26.93;;;5.70;99.90;;;;;;785571;183;26436;-77
2024/04/18 05:04:30;;;;;;;44.93;26.33;;;5.70;99.90;;;;;;800250;179;26970;-79
2024/04/18 05:06:57;;;;;;;50.17;27.87;;;5.70;99.90;;;;;;785835;183;26456;-79
2024/04/18 05:09:24;;;;;;;54.83;26.97;;;5.70;99.90;;;;;;789901;179;27224;-78
2024/04/18 05:11:50;;;;;;;49.17;26.87;;;5.80;99.90;;;;;;798679;179;26434;-78
2024/04/18 05:14:17;;;;;;;51.57;28.77;;;5.80;99.90;;;;;;802927;179;26442;-78
2024/04/18 05:16:43;;;;;;;48.93;26.07;;;5.80;99.90;;;;;;801226;179;26476;-78
2024/04/18 05:19:10;;;;;;;44.37;24.17;;;5.80;99.90;;;;;;796109;179;26473;-78
2024/04/18 05:21:37;;;;;;;48.07;25.83;;;5.80;99.90;;;;;;794882;179;26439;-78
2024/04/18 05:24:03;;;;;;;55.03;28.50;;;5.90;99.90;;;;;;798432;179;26477;-79
2024/04/18 05:26:32;;;;;;;62.07;31.33;;;5.90;99.90;;;;;;798538;179;26420;-78
2024/04/18 05:31:29;;;;;;;63.37;29.90;;;5.90;99.90;;;;;;800131;179;26413;-78
2024/04/18 05:33:55;;;;;;;59.10;29.53;;;5.90;99.90;;;;;;782388;183;26533;-77
2024/04/18 05:36:22;;;;;;;44.23;26.23;;;5.90;99.90;;;;;;800967;179;26446;-75
2024/04/18 05:38:49;;;;;;;48.20;25.80;;;5.90;99.90;;;;;;783918;182;26479;-78
2024/04/18 05:41:15;;;;;;;46.27;25.07;;;6.00;99.90;;;;;;799770;179;26418;-78
2024/04/18 05:43:42;;;;;;;48.43;25.23;;;5.90;99.90;;;;;;800132;180;26414;-79
2024/04/18 05:46:09;;;;;;;44.47;25.03;;;6.00;99.90;;;;;;784011;183;26454;-79
2024/04/18 05:48:35;;;;;;;45.33;25.43;;;6.00;99.90;;;;;;799393;180;26557;-76
2024/04/18 05:51:01;;;;;;;43.20;25.00;;;6.00;99.90;;;;;;800206;179;26425;-77
2024/04/18 05:53:28;;;;;;;46.03;25.93;;;6.10;99.90;;;;;;780418;183;26490;-78
2024/04/18 05:55:55;;;;;;;42.67;22.50;;;6.10;99.90;;;;;;799188;179;27045;-77
2024/04/18 05:58:21;;;;;;;43.90;23.77;;;6.20;99.90;;;;;;783422;183;26455;-75
2024/04/18 06:00:48;;;;;;;43.23;23.03;;;6.30;99.90;;;;;;801656;177;28892;-77
2024/04/18 06:03:15;;;;;;;37.67;22.97;;;6.40;99.90;;;;;;801877;178;26409;-77
2024/04/18 06:05:41;;;;;;;38.23;22.73;;;6.50;99.90;;;;;;794117;179;26447;-78
2024/04/18 06:08:08;;;;;;;37.77;23.00;;;6.40;99.90;;;;;;792598;178;26456;-78
2024/04/18 06:10:37;;;;;;;40.20;22.73;;;6.30;99.90;;;;;;796055;179;26418;-77
2024/04/18 06:13:01;;;;;;;44.13;22.63;;;6.20;99.90;;;;;;798369;179;26560;-79
2024/04/18 06:15:27;;;;;;;40.07;22.87;;;6.20;99.90;;;;;;784322;182;26565;-78
2024/04/18 06:17:54;;;;;;;38.63;21.80;;;6.10;99.90;;;;;;784360;183;26467;-80
2024/04/18 06:20:22;;;;;;;33.47;18.87;;;6.20;99.90;;;;;;800647;179;26424;-79
2024/04/18 06:22:48;;;;;;;31.17;18.40;;;6.20;99.90;;;;;;779292;182;26453;-78
2024/04/18 06:25:16;;;;;;;27.20;17.83;;;6.20;99.90;;;;;;802182;179;26435;-78
2024/04/18 06:27:41;;;;;;;29.07;18.00;;;6.30;99.90;;;;;;800422;179;26450;-79
2024/04/18 06:30:08;;;;;;;24.23;15.70;;;6.30;99.90;;;;;;786121;183;26447;-77
2024/04/18 06:32:35;;;;;;;26.53;15.80;;;6.40;99.90;;;;;;786795;183;26404;-78
2024/04/18 06:35:01;;;;;;;24.37;14.07;;;6.40;99.90;;;;;;800843;179;26467;-78
2024/04/18 06:37:28;;;;;;;23.93;14.67;;;6.40;99.90;;;;;;775493;183;26502;-78
2024/04/18 06:39:54;;;;;;;19.03;12.37;;;6.40;99.90;;;;;;776907;184;26394;-78
2024/04/18 06:42:21;;;;;;;23.47;13.70;;;6.50;99.90;;;;;;798749;179;26420;-78
2024/04/18 06:44:48;;;;;;;29.90;14.07;;;6.60;99.90;;;;;;778191;183;26405;-78
2024/04/18 06:47:14;;;;;;;18.93;11.23;;;6.70;99.90;;;;;;799160;179;26440;-79
2024/04/18 06:49:41;;;;;;;18.53;11.37;;;6.80;99.90;;;;;;784011;182;26479;-80
2024/04/18 06:52:07;;;;;;;19.13;10.00;;;6.90;99.90;;;;;;775119;183;26500;-77
2024/04/18 06:54:34;;;;;;;21.10;12.07;;;7.10;99.90;;;;;;800835;179;26417;-77
2024/04/18 06:57:00;;;;;;;16.90;9.90;;;7.20;99.90;;;;;;799947;180;26408;-78
2024/04/18 06:59:27;;;;;;;23.00;12.10;;;7.20;99.90;;;;;;786997;180;26474;-78
2024/04/18 07:01:54;;;;;;;22.73;10.60;;;7.30;99.90;;;;;;796938;179;26451;-78
2024/04/18 07:04:20;;;;;;;20.63;10.77;;;7.30;99.90;;;;;;786512;183;26500;-76
2024/04/18 07:06:47;;;;;;;19.50;10.20;;;7.10;99.90;;;;;;798606;179;26406;-79
2024/04/18 07:09:13;;;;;;;18.70;11.17;;;7.10;99.90;;;;;;783757;183;26475;-79
2024/04/18 07:11:40;;;;;;;19.73;9.90;;;7.00;99.90;;;;;;797925;179;26417;-78
2024/04/18 07:14:07;;;;;;;23.43;10.83;;;7.10;99.90;;;;;;777699;183;26488;-78
2024/04/18 07:16:33;;;;;;;22.13;11.50;;;7.10;99.90;;;;;;787149;182;26555;-78
2024/04/18 07:19:00;;;;;;;18.63;10.60;;;7.20;99.90;;;;;;802984;179;27015;-77
2024/04/18 07:21:26;;;;;;;22.37;10.00;;;7.20;99.90;;;;;;777996;183;26474;-79
2024/04/18 07:23:53;;;;;;;22.43;10.67;;;7.20;99.90;;;;;;782745;183;26445;-78
2024/04/18 07:26:20;;;;;;;20.80;8.77;;;7.20;99.90;;;;;;802312;179;26418;-77
2024/04/18 07:28:47;;;;;;;17.57;8.83;;;7.30;99.90;;;;;;789833;179;26448;-75
2024/04/18 07:31:13;;;;;;;20.63;9.23;;;7.30;99.90;;;;;;800206;178;26453;-79
2024/04/18 07:33:39;;;;;;;15.67;9.27;;;7.30;99.90;;;;;;801572;169;26649;-74
2024/04/18 07:36:06;;;;;;;18.70;10.47;;;7.50;99.90;;;;;;811762;176;27097;-76
2024/04/18 07:38:33;;;;;;;21.77;9.53;;;7.80;99.90;;;;;;812515;176;26435;-77
2024/04/18 07:40:59;;;;;;;21.40;9.93;;;7.90;99.90;;;;;;812705;176;26449;-77
2024/04/18 07:43:26;;;;;;;15.10;9.13;;;8.10;99.90;;;;;;796231;177;26450;-77
2024/04/18 07:45:52;;;;;;;21.50;9.70;;;8.10;99.90;;;;;;795256;177;26674;-76
2024/04/18 07:48:19;;;;;;;16.57;8.70;;;8.30;99.90;;;;;;792584;179;26432;-76
2024/04/18 07:50:46;;;;;;;18.17;7.93;;;8.50;99.90;;;;;;789736;179;26509;-76
2024/04/18 07:53:12;;;;;;;17.43;9.10;;;8.60;99.90;;;;;;786384;177;26447;-76
2024/04/18 07:55:39;;;;;;;14.60;7.33;;;8.70;99.90;;;;;;796396;179;26448;-76
2024/04/18 07:58:06;;;;;;;19.20;8.03;;;8.80;99.90;;;;;;796994;179;26835;-76
2024/04/18 08:00:33;;;;;;;13.43;6.63;;;8.90;99.90;;;;;;795840;179;26969;-76
2024/04/18 08:02:59;;;;;;;16.97;7.33;;;8.80;99.90;;;;;;778440;183;26517;-77
2024/04/18 08:05:26;;;;;;;16.37;7.03;;;8.60;99.90;;;;;;796529;179;26442;-76
2024/04/18 08:07:53;;;;;;;18.23;7.73;;;8.60;99.90;;;;;;789020;180;26468;-77
2024/04/18 08:10:19;;;;;;;13.23;7.10;;;8.80;99.90;;;;;;794766;178;26432;-77
2024/04/18 08:12:46;;;;;;;15.97;6.93;;;9.20;99.90;;;;;;797478;179;26459;-76
2024/04/18 08:15:12;;;;;;;13.70;6.97;;;9.40;99.90;;;;;;791540;180;26503;-77
2024/04/18 08:17:39;;;;;;;12.50;5.77;;;9.70;99.90;;;;;;799458;175;26433;-77
2024/04/18 08:20:06;;;;;;;12.37;6.30;;;9.60;99.90;;;;;;797914;180;26605;-76
2024/04/18 08:22:34;;;;;;;12.80;6.53;;;9.40;99.90;;;;;;792154;180;26486;-75
2024/04/18 08:25:02;;;;;;;13.57;6.57;;;9.90;99.90;;;;;;802729;176;26447;-77
2024/04/18 08:27:26;;;;;;;14.27;6.33;;;10.00;99.90;;;;;;802165;176;26573;-76
2024/04/18 08:29:53;;;;;;;13.73;5.63;;;10.00;99.90;;;;;;799012;180;26436;-77
2024/04/18 08:32:19;;;;;;;13.03;6.23;;;10.20;99.90;;;;;;799157;179;26455;-77
2024/04/18 08:34:46;;;;;;;12.27;4.83;;;9.90;99.90;;;;;;801241;179;26463;-76
2024/04/18 08:37:13;;;;;;;14.10;5.07;;;9.70;99.90;;;;;;801443;177;27659;-76
2024/04/18 08:39:39;;;;;;;11.87;4.73;;;9.30;99.90;;;;;;799526;178;26427;-76
2024/04/18 08:42:06;;;;;;;10.30;4.93;;;9.30;99.90;;;;;;799890;177;27647;-77
2024/04/18 08:44:33;;;;;;;13.30;4.67;;;9.30;99.90;;;;;;798303;179;26598;-78
2024/04/18 08:46:59;;;;;;;9.67;4.30;;;9.50;99.90;;;;;;798831;179;26431;-77
2024/04/18 08:49:26;;;;;;;7.13;3.40;;;9.70;99.90;;;;;;799028;179;26434;-77
2024/04/18 08:51:53;;;;;;;10.07;3.80;;;9.70;99.90;;;;;;798487;179;26415;-76
2024/04/18 08:54:20;;;;;;;10.63;3.80;;;9.80;99.90;;;;;;798344;179;26431;-78
2024/04/18 08:56:46;;;;;;;9.43;3.30;;;10.10;99.90;;;;;;799220;179;26443;-76
2024/04/18 08:59:13;;;;;;;7.30;3.40;;;10.70;99.90;;;;;;799202;179;26411;-77
2024/04/18 09:01:40;;;;;;;8.43;3.67;;;10.90;99.90;;;;;;800938;179;26444;-77
2024/04/18 09:04:06;;;;;;;12.00;3.70;;;10.90;99.90;;;;;;800336;179;26452;-77
2024/04/18 09:06:33;;;;;;;15.37;4.17;;;11.30;99.90;;;;;;797894;179;26435;-77
2024/04/18 09:09:01;;;;;;;15.37;6.50;;;11.10;99.90;;;;;;798392;180;26418;-75
2024/04/18 09:11:29;;;;;;;14.53;3.53;;;10.80;99.90;;;;;;801376;179;26487;-77
2024/04/18 09:13:54;;;;;;;11.00;4.50;;;10.80;99.90;;;;;;799492;179;26434;-77
2024/04/18 09:16:21;;;;;;;12.77;4.20;;;10.60;99.90;;;;;;796725;178;26442;-76
2024/04/18 09:18:48;;;;;;;10.83;3.20;;;11.00;99.90;;;;;;803102;176;26442;-76
2024/04/18 09:21:14;;;;;;;10.00;3.47;;;11.10;99.90;;;;;;799150;179;26458;-76
2024/04/18 09:23:41;;;;;;;10.17;3.20;;;11.30;99.90;;;;;;797063;179;26516;-76
2024/04/18 09:26:07;;;;;;;9.83;3.27;;;11.80;99.90;;;;;;797878;177;27825;-75
2024/04/18 09:28:34;;;;;;;12.77;3.40;;;12.00;99.90;;;;;;796841;176;26440;-76
2024/04/18 09:31:01;;;;;;;10.33;3.03;;;12.00;99.90;;;;;;793146;179;26896;-77
2024/04/18 09:33:27;;;;;;;12.43;3.17;;;12.00;99.90;;;;;;798744;177;26450;-77
2024/04/18 09:35:54;;;;;;;11.60;3.67;;;12.40;99.90;;;;;;801490;175;26467;-77
2024/04/18 09:38:21;;;;;;;12.77;3.50;;;12.60;99.90;;;;;;799941;179;26572;-78
2024/04/18 09:40:52;;;;;;;7.30;2.57;;;12.90;99.90;;;;;;799205;177;26415;-77
2024/04/18 09:43:23;;;;;;;8.17;3.00;;;12.80;99.90;;;;;;794798;179;26461;-77
2024/04/18 09:45:52;;;;;;;9.33;3.50;;;12.60;99.90;;;;;;800581;177;26443;-76
2024/04/18 09:48:18;;;;;;;10.00;3.43;;;11.90;99.90;;;;;;799171;177;26429;-78
2024/04/18 09:50:45;;;;;;;9.03;3.27;;;11.70;99.90;;;;;;798153;179;26417;-77
2024/04/18 09:53:12;;;;;;;9.07;3.63;;;11.70;99.90;;;;;;799338;178;26576;-77
2024/04/18 09:55:38;;;;;;;14.60;3.50;;;11.40;99.90;;;;;;792674;180;26467;-78
2024/04/18 09:58:05;;;;;;;11.33;4.37;;;11.80;99.90;;;;;;801233;176;26443;-77
2024/04/18 10:00:31;;;;;;;8.60;3.07;;;12.10;99.90;;;;;;799047;178;26439;-78
2024/04/18 10:02:58;;;;;;;10.40;4.03;;;12.50;99.90;;;;;;795987;179;27666;-77
2024/04/18 10:05:25;;;;;;;7.97;2.97;;;13.10;99.90;;;;;;795245;179;27003;-77
2024/04/18 10:07:51;;;;;;;13.10;3.80;;;12.90;99.50;;;;;;798423;177;26443;-77
2024/04/18 10:10:18;;;;;;;9.70;3.50;;;12.40;99.90;;;;;;796335;177;26440;-77
2024/04/18 10:12:44;;;;;;;8.57;3.07;;;11.80;99.90;;;;;;797682;179;26432;-77
2024/04/18 10:15:11;;;;;;;11.47;3.20;;;11.40;99.90;;;;;;801267;177;26439;-77
2024/04/18 10:17:38;;;;;;;8.20;2.90;;;11.30;99.90;;;;;;801066;176;26438;-77
2024/04/18 10:20:05;;;;;;;10.30;3.20;;;11.30;99.90;;;;;;804624;176;26426;-77
2024/04/18 10:22:32;;;;;;;8.30;3.17;;;11.20;99.90;;;;;;798026;179;26510;-76
2024/04/18 10:24:59;;;;;;;8.67;2.87;;;11.20;99.90;;;;;;787275;180;27650;-77
2024/04/18 10:27:25;;;;;;;7.90;2.80;;;11.00;99.90;;;;;;797205;178;26430;-77
2024/04/18 10:29:56;;;;;;;6.43;2.93;;;11.00;99.90;;;;;;797879;179;26426;-78
2024/04/18 10:32:22;;;;;;;10.13;4.20;;;11.40;99.90;;;;;;798513;179;26454;-77
2024/04/18 10:34:49;;;;;;;10.63;3.23;;;11.70;99.90;;;;;;786377;180;26499;-77
2024/04/18 10:37:20;;;;;;;10.57;2.93;;;11.80;99.90;;;;;;800983;177;26454;-77
2024/04/18 10:39:47;;;;;;;8.70;2.70;;;11.80;99.90;;;;;;797871;176;26418;-77
2024/04/18 10:42:13;;;;;;;9.60;3.00;;;13.00;99.40;;;;;;795952;177;26455;-75
2024/04/18 10:44:40;;;;;;;6.17;2.67;;;14.60;93.20;;;;;;798791;179;26974;-74
2024/04/18 10:47:06;;;;;;;9.80;3.87;;;15.30;91.00;;;;;;793333;179;26436;-77
2024/04/18 10:49:34;;;;;;;23.77;10.77;;;16.50;89.00;;;;;;775525;183;26477;-79
2024/04/18 10:52:00;;;;;;;15.07;5.23;;;16.80;73.20;;;;;;798793;179;26451;-77
2024/04/18 10:54:27;;;;;;;11.17;5.33;;;15.00;75.90;;;;;;798472;179;26478;-77
2024/04/18 10:56:53;;;;;;;13.30;6.27;;;14.40;91.40;;;;;;798447;179;26585;-78
2024/04/18 10:59:20;;;;;;;13.20;6.50;;;14.20;92.50;;;;;;798388;178;26436;-78
2024/04/18 11:01:47;;;;;;;11.33;4.70;;;13.30;92.90;;;;;;799562;178;26453;-77
2024/04/18 11:04:13;;;;;;;10.73;5.07;;;12.30;99.90;;;;;;798057;179;27186;-77
2024/04/18 11:06:40;;;;;;;20.87;9.60;;;12.20;99.50;;;;;;798254;179;26464;-78
2024/04/18 11:09:07;;;;;;;9.97;4.90;;;12.40;98.00;;;;;;797358;179;26937;-77
2024/04/18 11:11:38;;;;;;;9.13;4.10;;;12.50;96.00;;;;;;798174;178;26440;-77
2024/04/18 11:14:00;;;;;;;11.87;3.60;;;13.90;96.90;;;;;;791858;181;26512;-77
2024/04/18 11:16:27;;;;;;;6.93;3.73;;;15.60;89.80;;;;;;798485;179;26467;-77
2024/04/18 11:18:54;;;;;;;11.83;4.20;;;16.40;70.00;;;;;;805401;177;26442;-78
2024/04/18 11:21:20;;;;;;;8.10;4.37;;;15.70;70.00;;;;;;798950;177;26427;-77
2024/04/18 11:23:52;;;;;;;6.67;4.10;;;14.50;85.10;;;;;;805184;176;26533;-77
2024/04/18 11:26:19;;;;;;;8.93;4.17;;;15.20;82.50;;;;;;807149;177;26430;-77
2024/04/18 11:28:50;;;;;;;7.13;3.70;;;16.40;90.10;;;;;;797674;179;26435;-77
2024/04/18 11:31:16;;;;;;;6.53;3.73;;;17.20;77.50;;;;;;796189;179;26431;-77
2024/04/18 11:33:43;;;;;;;9.00;4.10;;;16.70;63.80;;;;;;798172;180;26467;-77
2024/04/18 11:36:09;;;;;;;8.87;4.77;;;15.80;65.90;;;;;;791115;180;26443;-78
2024/04/18 11:38:37;;;;;;;23.80;12.47;;;15.00;81.00;;;;;;797021;178;26443;-77
2024/04/18 11:41:03;;;;;;;13.63;3.93;;;14.80;74.80;;;;;;799862;179;26587;-76
2024/04/18 11:43:29;;;;;;;9.33;3.77;;;13.70;71.20;;;;;;798441;179;27056;-77
2024/04/18 11:45:56;;;;;;;6.03;2.60;;;13.00;86.60;;;;;;794011;181;26455;-79
2024/04/18 11:48:23;;;;;;;7.00;3.40;;;12.40;76.10;;;;;;800245;178;26982;-78
2024/04/18 11:50:49;;;;;;;9.63;3.50;;;12.20;80.80;;;;;;798067;179;26448;-78
2024/04/18 11:53:16;;;;;;;9.03;3.23;;;12.30;84.50;;;;;;800446;176;26628;-76
2024/04/18 11:55:42;;;;;;;11.00;4.47;;;12.10;83.90;;;;;;796877;178;26597;-76
2024/04/18 11:58:09;;;;;;;9.20;3.03;;;12.40;84.80;;;;;;797876;178;26597;-77
2024/04/18 12:00:36;;;;;;;9.17;3.10;;;12.70;85.70;;;;;;802049;178;26430;-77
2024/04/18 12:03:03;;;;;;;7.70;3.23;;;12.70;73.70;;;;;;799763;179;26458;-76
2024/04/18 12:05:29;;;;;;;4.33;2.40;;;12.90;78.70;;;;;;800918;179;26447;-77
2024/04/18 12:07:55;;;;;;;22.87;9.47;;;14.50;67.00;;;;;;799853;177;26435;-77
2024/04/18 12:10:22;;;;;;;6.07;2.60;;;17.00;63.00;;;;;;798978;178;26431;-77
2024/04/18 12:12:49;;;;;;;5.50;3.00;;;17.90;54.00;;;;;;798657;179;26600;-77
2024/04/18 12:15:15;;;;;;;7.47;2.83;;;17.10;47.50;;;;;;799842;179;26550;-78
2024/04/18 12:17:42;;;;;;;7.10;2.80;;;17.10;48.50;;;;;;799808;179;26425;-77
2024/04/18 12:20:09;;;;;;;2.80;1.87;;;17.60;43.90;;;;;;799585;179;26462;-76
2024/04/18 12:22:35;;;;;;;7.57;4.27;;;18.50;42.60;;;;;;799661;179;26595;-74
2024/04/18 12:25:03;;;;;;;6.30;1.93;;;18.80;40.20;;;;;;799204;179;26427;-76
2024/04/18 12:27:28;;;;;;;5.43;2.00;;;18.60;42.60;;;;;;799869;179;26448;-78
2024/04/18 12:29:55;;;;;;;5.07;2.30;;;17.60;43.70;;;;;;799011;179;26430;-77
2024/04/18 12:32:22;;;;;;;3.67;1.80;;;16.00;47.40;;;;;;789731;180;26484;-76
2024/04/18 12:34:49;;;;;;;3.60;1.77;;;14.70;56.70;;;;;;798817;177;26576;-77
2024/04/18 12:37:16;;;;;;;6.17;1.70;;;14.10;67.80;;;;;;799914;174;27603;-76
2024/04/18 12:39:44;;;;;;;4.87;2.27;;;14.80;59.10;;;;;;799354;178;26432;-77